EBAW/ANR METAR and TAF weather

Enter ICAO airport designator
Station Type Date Time Source
EBAW METAR 2022/01/27 22:20 UTC NOAA

EBAW 272220Z AUTO 28008KT 9999 // VV/// 07/04 Q1030


Station Type Date Time Source
EBAW Decoded METAR 2022/01/27 22:20 UTC NOAA

Antwerpen / Deurne, Belgium (EBAW) 51-12N 004-28E 14M
Jan 27, 2022 - 05:20 PM EST / 2022.01.27 2220 UTC
Wind: from the W (280 degrees) at 9 MPH (8 KT):0
Visibility: greater than 7 mile(s):0
Sky conditions: obscured
Temperature: 44 F (7 C)
Dew Point: 39 F (4 C)
Relative Humidity: 81%
Pressure (altimeter): 30.42 in. Hg (1030 hPa)
ob: EBAW 272220Z AUTO 28008KT 9999 // VV/// 07/04 Q1030
cycle: 22

Station Type Date Time Source
EBAW TAF 2020/09/23 00:30 UTC NOAA

TAF TAF EBAW 232300Z 2400/2412 25011KT 9999 SCT030

Example: see airport list